sensor_id;sensor_type;location;lat;lon;timestamp;pressure;altitude;pressure_sealevel;temperature;humidity
45369;BME280;51342;55.250;37.668;2023-12-20T00:00:01;97922.78;;;2.27;88.50
45369;BME280;51342;55.250;37.668;2023-12-20T00:02:35;97925.31;;;2.27;88.69
45369;BME280;51342;55.250;37.668;2023-12-20T00:05:07;97913.28;;;2.24;88.83
45369;BME280;51342;55.250;37.668;2023-12-20T00:07:39;97905.69;;;2.26;88.77
45369;BME280;51342;55.250;37.668;2023-12-20T00:10:11;97904.91;;;2.27;88.72
45369;BME280;51342;55.250;37.668;2023-12-20T00:12:44;97921.13;;;2.27;88.58
45369;BME280;51342;55.250;37.668;2023-12-20T00:15:15;97920.22;;;2.27;88.89
45369;BME280;51342;55.250;37.668;2023-12-20T00:17:47;97915.03;;;2.25;88.83
45369;BME280;51342;55.250;37.668;2023-12-20T00:20:18;97892.06;;;2.25;88.53
45369;BME280;51342;55.250;37.668;2023-12-20T00:22:50;97898.06;;;2.26;88.71
45369;BME280;51342;55.250;37.668;2023-12-20T00:25:21;97908.25;;;2.26;88.54
45369;BME280;51342;55.250;37.668;2023-12-20T00:27:53;97911.00;;;2.29;88.76
45369;BME280;51342;55.250;37.668;2023-12-20T00:30:24;97916.13;;;2.29;88.62
45369;BME280;51342;55.250;37.668;2023-12-20T00:32:56;97918.47;;;2.26;88.74
45369;BME280;51342;55.250;37.668;2023-12-20T00:35:27;97910.72;;;2.24;88.73
45369;BME280;51342;55.250;37.668;2023-12-20T00:37:59;97908.16;;;2.24;88.53
45369;BME280;51342;55.250;37.668;2023-12-20T00:40:30;97918.47;;;2.26;88.91
45369;BME280;51342;55.250;37.668;2023-12-20T00:43:02;97918.47;;;2.26;88.73
45369;BME280;51342;55.250;37.668;2023-12-20T00:45:33;97922.69;;;2.25;88.56
45369;BME280;51342;55.250;37.668;2023-12-20T00:48:05;97924.44;;;2.26;88.59
45369;BME280;51342;55.250;37.668;2023-12-20T00:50:37;97918.59;;;2.27;88.84
45369;BME280;51342;55.250;37.668;2023-12-20T00:53:08;97922.00;;;2.28;88.67
45369;BME280;51342;55.250;37.668;2023-12-20T00:55:40;97922.78;;;2.27;88.72
45369;BME280;51342;55.250;37.668;2023-12-20T00:58:11;97922.00;;;2.28;88.76
45369;BME280;51342;55.250;37.668;2023-12-20T01:00:43;97912.56;;;2.27;88.51
45369;BME280;51342;55.250;37.668;2023-12-20T01:03:15;97909.94;;;2.25;88.90
45369;BME280;51342;55.250;37.668;2023-12-20T01:05:46;97899.81;;;2.27;88.66
45369;BME280;51342;55.250;37.668;2023-12-20T01:08:19;97902.47;;;2.28;88.82
45369;BME280;51342;55.250;37.668;2023-12-20T01:10:51;97903.28;;;2.27;88.98
45369;BME280;51342;55.250;37.668;2023-12-20T01:13:23;97899.03;;;2.28;88.67
45369;BME280;51342;55.250;37.668;2023-12-20T01:15:54;97910.13;;;2.28;88.60
45369;BME280;51342;55.250;37.668;2023-12-20T01:18:26;97892.94;;;2.26;88.88
45369;BME280;51342;55.250;37.668;2023-12-20T01:21:02;97887.84;;;2.26;88.47
45369;BME280;51342;55.250;37.668;2023-12-20T01:23:34;97882.75;;;2.26;88.76
45369;BME280;51342;55.250;37.668;2023-12-20T01:26:05;97883.03;;;2.30;88.66
45369;BME280;51342;55.250;37.668;2023-12-20T01:28:37;97881.34;;;2.31;88.80
45369;BME280;51342;55.250;37.668;2023-12-20T01:31:09;97888.03;;;2.29;88.64
45369;BME280;51342;55.250;37.668;2023-12-20T01:33:40;97883.03;;;2.30;88.55
45369;BME280;51342;55.250;37.668;2023-12-20T01:36:12;97888.22;;;2.32;88.86
45369;BME280;51342;55.250;37.668;2023-12-20T01:38:43;97883.09;;;2.32;88.57
45369;BME280;51342;55.250;37.668;2023-12-20T01:41:15;97885.56;;;2.30;88.57
45369;BME280;51342;55.250;37.668;2023-12-20T01:43:46;97886.53;;;2.32;88.58
45369;BME280;51342;55.250;37.668;2023-12-20T01:46:19;97877.84;;;2.29;88.26
45369;BME280;51342;55.250;37.668;2023-12-20T01:48:51;97882.16;;;2.30;88.64
45369;BME280;51342;55.250;37.668;2023-12-20T01:51:23;97875.28;;;2.29;88.12
45369;BME280;51342;55.250;37.668;2023-12-20T01:53:57;97875.97;;;2.26;88.16
45369;BME280;51342;55.250;37.668;2023-12-20T01:56:29;97877.84;;;2.29;88.31
45369;BME280;51342;55.250;37.668;2023-12-20T01:59:01;97868.31;;;2.26;88.37
45369;BME280;51342;55.250;37.668;2023-12-20T02:01:33;97871.75;;;2.27;88.15
45369;BME280;51342;55.250;37.668;2023-12-20T02:04:05;97864.88;;;2.26;88.44
45369;BME280;51342;55.250;37.668;2023-12-20T02:06:39;97859.78;;;2.26;88.41
45369;BME280;51342;55.250;37.668;2023-12-20T02:09:11;97866.56;;;2.25;87.94
45369;BME280;51342;55.250;37.668;2023-12-20T02:11:43;97850.44;;;2.26;88.00
45369;BME280;51342;55.250;37.668;2023-12-20T02:14:14;97844.31;;;2.23;87.70
45369;BME280;51342;55.250;37.668;2023-12-20T02:16:46;97853.88;;;2.27;87.92
45369;BME280;51342;55.250;37.668;2023-12-20T02:19:19;97852.84;;;2.23;88.04
45369;BME280;51342;55.250;37.668;2023-12-20T02:22:05;97855.31;;;2.22;87.96
45369;BME280;51342;55.250;37.668;2023-12-20T02:24:37;97864.00;;;2.25;88.07
45369;BME280;51342;55.250;37.668;2023-12-20T02:27:08;97860.56;;;2.25;87.66
45369;BME280;51342;55.250;37.668;2023-12-20T02:29:40;97866.63;;;2.27;87.87
45369;BME280;51342;55.250;37.668;2023-12-20T02:32:11;97865.88;;;2.28;87.80
45369;BME280;51342;55.250;37.668;2023-12-20T02:34:42;97859.19;;;2.30;87.76
45369;BME280;51342;55.250;37.668;2023-12-20T02:37:14;97863.41;;;2.29;87.88
45369;BME280;51342;55.250;37.668;2023-12-20T02:39:46;97857.44;;;2.29;87.61
45369;BME280;51342;55.250;37.668;2023-12-20T02:42:17;97852.31;;;2.29;87.79
45369;BME280;51342;55.250;37.668;2023-12-20T02:44:48;97847.72;;;2.23;87.65
45369;BME280;51342;55.250;37.668;2023-12-20T02:47:20;97850.28;;;2.23;87.64
45369;BME280;51342;55.250;37.668;2023-12-20T02:49:51;97853.00;;;2.26;87.75
45369;BME280;51342;55.250;37.668;2023-12-20T02:52:28;97865.69;;;2.25;87.53
45369;BME280;51342;55.250;37.668;2023-12-20T02:55:00;97870.09;;;2.27;87.71
45369;BME280;51342;55.250;37.668;2023-12-20T02:57:31;97868.31;;;2.26;87.39
45369;BME280;51342;55.250;37.668;2023-12-20T03:00:05;97870.09;;;2.27;87.77
45369;BME280;51342;55.250;37.668;2023-12-20T03:02:36;97873.41;;;2.26;87.50
45369;BME280;51342;55.250;37.668;2023-12-20T03:05:08;97867.44;;;2.26;87.53
45369;BME280;51342;55.250;37.668;2023-12-20T03:07:39;97856.06;;;2.21;87.48
45369;BME280;51342;55.250;37.668;2023-12-20T03:10:11;97868.94;;;2.22;87.57
45369;BME280;51342;55.250;37.668;2023-12-20T03:12:42;97866.56;;;2.25;87.46
45369;BME280;51342;55.250;37.668;2023-12-20T03:15:14;97873.31;;;2.25;87.52
45369;BME280;51342;55.250;37.668;2023-12-20T03:17:45;97866.47;;;2.24;87.27
45369;BME280;51342;55.250;37.668;2023-12-20T03:20:17;97858.03;;;2.25;87.61
45369;BME280;51342;55.250;37.668;2023-12-20T03:22:48;97865.59;;;2.23;87.55
45369;BME280;51342;55.250;37.668;2023-12-20T03:25:20;97863.03;;;2.23;87.44
45369;BME280;51342;55.250;37.668;2023-12-20T03:27:52;97860.50;;;2.23;87.29
45369;BME280;51342;55.250;37.668;2023-12-20T03:30:23;97869.91;;;2.24;87.59
45369;BME280;51342;55.250;37.668;2023-12-20T03:32:55;97867.16;;;2.21;87.83
45369;BME280;51342;55.250;37.668;2023-12-20T03:35:26;97876.69;;;2.24;87.42
45369;BME280;51342;55.250;37.668;2023-12-20T03:37:57;97868.06;;;2.22;87.68
45369;BME280;51342;55.250;37.668;2023-12-20T03:40:31;97858.53;;;2.19;87.56
45369;BME280;51342;55.250;37.668;2023-12-20T03:43:02;97874.22;;;2.25;87.63
45369;BME280;51342;55.250;37.668;2023-12-20T03:45:33;97873.41;;;2.26;87.55
45369;BME280;51342;55.250;37.668;2023-12-20T03:48:05;97866.38;;;2.22;87.39
45369;BME280;51342;55.250;37.668;2023-12-20T03:50:37;97867.34;;;2.24;87.53
45369;BME280;51342;55.250;37.668;2023-12-20T03:53:08;97864.00;;;2.25;87.61
45369;BME280;51342;55.250;37.668;2023-12-20T03:55:39;97849.50;;;2.24;87.62
45369;BME280;51342;55.250;37.668;2023-12-20T03:58:11;97856.53;;;2.28;87.38
45369;BME280;51342;55.250;37.668;2023-12-20T04:00:42;97867.72;;;2.30;87.57
45369;BME280;51342;55.250;37.668;2023-12-20T04:03:14;97861.81;;;2.31;87.20
45369;BME280;51342;55.250;37.668;2023-12-20T04:05:45;97862.53;;;2.29;87.27
45369;BME280;51342;55.250;37.668;2023-12-20T04:08:17;97859.91;;;2.27;87.23
45369;BME280;51342;55.250;37.668;2023-12-20T04:10:48;97865.00;;;2.27;87.57
45369;BME280;51342;55.250;37.668;2023-12-20T04:13:19;97876.97;;;2.28;87.23
45369;BME280;51342;55.250;37.668;2023-12-20T04:15:51;97880.19;;;2.26;87.54
45369;BME280;51342;55.250;37.668;2023-12-20T04:18:23;97883.63;;;2.26;87.27
45369;BME280;51342;55.250;37.668;2023-12-20T04:20:54;97866.38;;;2.22;87.44
45369;BME280;51342;55.250;37.668;2023-12-20T04:23:26;97871.66;;;2.25;87.33
45369;BME280;51342;55.250;37.668;2023-12-20T04:25:57;97876.09;;;2.28;87.55
45369;BME280;51342;55.250;37.668;2023-12-20T04:28:28;97870.97;;;2.28;87.68
45369;BME280;51342;55.250;37.668;2023-12-20T04:31:03;97883.03;;;2.30;87.73
45369;BME280;51342;55.250;37.668;2023-12-20T04:33:34;97883.81;;;2.29;87.70
45369;BME280;51342;55.250;37.668;2023-12-20T04:36:06;97885.41;;;2.27;87.12
45369;BME280;51342;55.250;37.668;2023-12-20T04:38:37;97876.84;;;2.27;87.42
45369;BME280;51342;55.250;37.668;2023-12-20T04:41:09;97886.28;;;2.28;87.37
45369;BME280;51342;55.250;37.668;2023-12-20T04:43:40;97886.97;;;2.25;87.20
45369;BME280;51342;55.250;37.668;2023-12-20T04:46:11;97893.66;;;2.23;87.17
45369;BME280;51342;55.250;37.668;2023-12-20T04:48:43;97893.94;;;2.28;87.15
45369;BME280;51342;55.250;37.668;2023-12-20T04:51:15;97891.19;;;2.25;87.20
45369;BME280;51342;55.250;37.668;2023-12-20T04:53:46;97899.91;;;2.28;87.17
45369;BME280;51342;55.250;37.668;2023-12-20T04:56:18;97896.50;;;2.28;87.48
45369;BME280;51342;55.250;37.668;2023-12-20T04:58:49;97902.34;;;2.27;87.31
45369;BME280;51342;55.250;37.668;2023-12-20T05:01:20;97897.25;;;2.27;87.00
45369;BME280;51342;55.250;37.668;2023-12-20T05:03:52;97908.25;;;2.26;87.29
45369;BME280;51342;55.250;37.668;2023-12-20T05:06:24;97910.81;;;2.26;87.07
45369;BME280;51342;55.250;37.668;2023-12-20T05:08:55;97913.19;;;2.23;86.91
45369;BME280;51342;55.250;37.668;2023-12-20T05:11:27;97924.44;;;2.26;87.29
45369;BME280;51342;55.250;37.668;2023-12-20T05:13:58;97917.66;;;2.27;87.01
45369;BME280;51342;55.250;37.668;2023-12-20T05:16:30;97924.44;;;2.26;87.40
45369;BME280;51342;55.250;37.668;2023-12-20T05:19:01;97928.88;;;2.29;87.40
45369;BME280;51342;55.250;37.668;2023-12-20T05:21:37;97934.75;;;2.28;87.26
45369;BME280;51342;55.250;37.668;2023-12-20T05:24:09;97928.06;;;2.30;87.00
45369;BME280;51342;55.250;37.668;2023-12-20T05:26:40;97929.66;;;2.28;87.14
45369;BME280;51342;55.250;37.668;2023-12-20T05:29:12;97928.00;;;2.28;87.01
45369;BME280;51342;55.250;37.668;2023-12-20T05:31:44;97939.06;;;2.29;86.98
45369;BME280;51342;55.250;37.668;2023-12-20T05:34:16;97933.88;;;2.27;87.10
45369;BME280;51342;55.250;37.668;2023-12-20T05:36:49;97936.31;;;2.26;87.06
45369;BME280;51342;55.250;37.668;2023-12-20T05:39:21;97925.25;;;2.25;87.05
45369;BME280;51342;55.250;37.668;2023-12-20T05:41:52;97926.91;;;2.25;86.89
45369;BME280;51342;55.250;37.668;2023-12-20T05:44:24;97935.53;;;2.27;86.89
45369;BME280;51342;55.250;37.668;2023-12-20T05:46:56;97925.94;;;2.23;86.96
45369;BME280;51342;55.250;37.668;2023-12-20T05:49:28;97926.22;;;2.27;86.83
45369;BME280;51342;55.250;37.668;2023-12-20T05:51:59;97931.22;;;2.26;87.13
45369;BME280;51342;55.250;37.668;2023-12-20T05:54:31;97928.59;;;2.24;87.26
45369;BME280;51342;55.250;37.668;2023-12-20T05:57:03;97923.47;;;2.24;86.60
45369;BME280;51342;55.250;37.668;2023-12-20T05:59:36;97925.16;;;2.24;87.12
45369;BME280;51342;55.250;37.668;2023-12-20T06:02:08;97925.16;;;2.24;86.79
45369;BME280;51342;55.250;37.668;2023-12-20T06:04:42;97919.84;;;2.21;87.06
45369;BME280;51342;55.250;37.668;2023-12-20T06:07:15;97933.59;;;2.23;86.81
45369;BME280;51342;55.250;37.668;2023-12-20T06:09:47;97930.06;;;2.21;86.89
45369;BME280;51342;55.250;37.668;2023-12-20T06:12:20;97938.78;;;2.24;86.88
45369;BME280;51342;55.250;37.668;2023-12-20T06:14:52;97934.56;;;2.25;86.93
45369;BME280;51342;55.250;37.668;2023-12-20T06:17:24;97939.66;;;2.25;86.77
45369;BME280;51342;55.250;37.668;2023-12-20T06:19:55;97930.25;;;2.24;87.06
45369;BME280;51342;55.250;37.668;2023-12-20T06:22:27;97926.13;;;2.26;86.82
45369;BME280;51342;55.250;37.668;2023-12-20T06:24:59;97919.09;;;2.22;86.86
45369;BME280;51342;55.250;37.668;2023-12-20T06:27:31;97929.66;;;2.28;86.98
45369;BME280;51342;55.250;37.668;2023-12-20T06:30:05;97927.09;;;2.28;86.84
45369;BME280;51342;55.250;37.668;2023-12-20T06:32:37;97930.63;;;2.30;86.73
45369;BME280;51342;55.250;37.668;2023-12-20T06:35:11;97925.31;;;2.27;86.73
45369;BME280;51342;55.250;37.668;2023-12-20T06:37:43;97921.22;;;2.29;86.79
45369;BME280;51342;55.250;37.668;2023-12-20T06:40:15;97930.63;;;2.30;86.49
45369;BME280;51342;55.250;37.668;2023-12-20T06:42:48;97934.06;;;2.30;86.69
45369;BME280;51342;55.250;37.668;2023-12-20T06:45:19;97946.03;;;2.31;86.54
45369;BME280;51342;55.250;37.668;2023-12-20T06:47:53;97940.84;;;2.30;86.61
45369;BME280;51342;55.250;37.668;2023-12-20T06:50:27;97951.13;;;2.31;86.61
45369;BME280;51342;55.250;37.668;2023-12-20T06:52:59;97934.75;;;2.28;86.53
45369;BME280;51342;55.250;37.668;2023-12-20T06:55:39;97947.69;;;2.31;86.57
45369;BME280;51342;55.250;37.668;2023-12-20T06:58:11;97946.03;;;2.31;86.74
45369;BME280;51342;55.250;37.668;2023-12-20T07:00:46;97952.78;;;2.31;86.47
45369;BME280;51342;55.250;37.668;2023-12-20T07:03:20;97940.03;;;2.31;86.61
45369;BME280;51342;55.250;37.668;2023-12-20T07:05:53;97947.91;;;2.34;86.66
45369;BME280;51342;55.250;37.668;2023-12-20T07:08:27;97947.97;;;2.35;86.56
45369;BME280;51342;55.250;37.668;2023-12-20T07:11:03;97943.16;;;2.40;86.64
45369;BME280;51342;55.250;37.668;2023-12-20T07:13:36;97943.97;;;2.39;86.71
45369;BME280;51342;55.250;37.668;2023-12-20T07:16:10;97947.38;;;2.39;86.52
45369;BME280;51342;55.250;37.668;2023-12-20T07:18:43;97950.03;;;2.41;86.56
45369;BME280;51342;55.250;37.668;2023-12-20T07:21:16;97951.09;;;2.45;86.16
45369;BME280;51342;55.250;37.668;2023-12-20T07:23:49;97946.88;;;2.45;86.29
45369;BME280;51342;55.250;37.668;2023-12-20T07:26:22;97957.25;;;2.48;86.55
45369;BME280;51342;55.250;37.668;2023-12-20T07:28:55;97951.47;;;2.51;86.09
45369;BME280;51342;55.250;37.668;2023-12-20T07:31:27;97961.75;;;2.52;86.27
45369;BME280;51342;55.250;37.668;2023-12-20T07:34:02;97959.28;;;2.54;86.40
45369;BME280;51342;55.250;37.668;2023-12-20T07:36:38;97953.31;;;2.53;86.20
45369;BME280;51342;55.250;37.668;2023-12-20T07:39:10;97958.50;;;2.55;86.29
45369;BME280;51342;55.250;37.668;2023-12-20T07:41:44;97965.47;;;2.57;86.00
45369;BME280;51342;55.250;37.668;2023-12-20T07:44:17;97961.25;;;2.58;86.18
45369;BME280;51342;55.250;37.668;2023-12-20T07:46:50;97957.03;;;2.58;85.87
45369;BME280;51342;55.250;37.668;2023-12-20T07:49:22;97949.09;;;2.54;86.02
45369;BME280;51342;55.250;37.668;2023-12-20T07:51:55;97956.22;;;2.59;86.22
45369;BME280;51342;55.250;37.668;2023-12-20T07:54:28;97953.00;;;2.62;86.21
45369;BME280;51342;55.250;37.668;2023-12-20T07:57:02;97945.94;;;2.58;85.78
45369;BME280;51342;55.250;37.668;2023-12-20T07:59:36;97956.59;;;2.65;85.85
45369;BME280;51342;55.250;37.668;2023-12-20T08:02:12;97950.59;;;2.65;85.65
45369;BME280;51342;55.250;37.668;2023-12-20T08:04:45;97953.25;;;2.66;85.78
45369;BME280;51342;55.250;37.668;2023-12-20T08:07:17;97949.81;;;2.66;85.74
45369;BME280;51342;55.250;37.668;2023-12-20T08:09:51;97949.22;;;2.70;85.58
45369;BME280;51342;55.250;37.668;2023-12-20T08:12:26;97954.22;;;2.69;85.63
45369;BME280;51342;55.250;37.668;2023-12-20T08:15:04;97951.75;;;2.70;85.62
45369;BME280;51342;55.250;37.668;2023-12-20T08:17:39;97946.84;;;2.73;85.67
45369;BME280;51342;55.250;37.668;2023-12-20T08:20:14;97946.94;;;2.75;85.38
45369;BME280;51342;55.250;37.668;2023-12-20T08:22:47;97944.53;;;2.78;85.36
45369;BME280;51342;55.250;37.668;2023-12-20T08:25:19;97946.22;;;2.77;85.55
45369;BME280;51342;55.250;37.668;2023-12-20T08:27:53;97934.44;;;2.79;85.54
45369;BME280;51342;55.250;37.668;2023-12-20T08:30:25;97940.44;;;2.80;85.38
45369;BME280;51342;55.250;37.668;2023-12-20T08:33:01;97934.34;;;2.78;85.40
45369;BME280;51342;55.250;37.668;2023-12-20T08:35:35;97939.56;;;2.79;85.36
45369;BME280;51342;55.250;37.668;2023-12-20T08:38:09;97943.06;;;2.81;85.48
45369;BME280;51342;55.250;37.668;2023-12-20T08:40:43;97943.16;;;2.83;85.03
45369;BME280;51342;55.250;37.668;2023-12-20T08:43:18;97934.59;;;2.82;85.23
45369;BME280;51342;55.250;37.668;2023-12-20T08:45:53;97937.09;;;2.81;85.30
45369;BME280;51342;55.250;37.668;2023-12-20T08:48:27;97944.22;;;2.86;85.08
45369;BME280;51342;55.250;37.668;2023-12-20T08:51:03;97941.66;;;2.86;85.12
45369;BME280;51342;55.250;37.668;2023-12-20T08:53:40;97922.91;;;2.86;85.11
45369;BME280;51342;55.250;37.668;2023-12-20T08:56:15;97924.75;;;2.88;85.16
45369;BME280;51342;55.250;37.668;2023-12-20T08:58:50;97924.41;;;2.82;85.06
45369;BME280;51342;55.250;37.668;2023-12-20T09:01:25;97934.00;;;2.86;85.33
45369;BME280;51342;55.250;37.668;2023-12-20T09:03:58;97934.09;;;2.88;84.87
45369;BME280;51342;55.250;37.668;2023-12-20T09:06:30;97936.63;;;2.88;85.02
45369;BME280;51342;55.250;37.668;2023-12-20T09:09:02;97931.53;;;2.88;84.93
45369;BME280;51342;55.250;37.668;2023-12-20T09:11:34;97927.22;;;2.87;84.82
45369;BME280;51342;55.250;37.668;2023-12-20T09:14:09;97942.53;;;2.87;84.96
45369;BME280;51342;55.250;37.668;2023-12-20T09:16:41;97939.13;;;2.86;84.93
45369;BME280;51342;55.250;37.668;2023-12-20T09:19:16;97942.47;;;2.85;85.09
45369;BME280;51342;55.250;37.668;2023-12-20T09:21:49;97937.28;;;2.84;84.71
45369;BME280;51342;55.250;37.668;2023-12-20T09:24:22;97932.84;;;2.81;84.86
45369;BME280;51342;55.250;37.668;2023-12-20T09:26:55;97943.94;;;2.82;84.93
45369;BME280;51342;55.250;37.668;2023-12-20T09:29:31;97937.00;;;2.79;84.65
45369;BME280;51342;55.250;37.668;2023-12-20T09:32:04;97936.13;;;2.79;84.93
45369;BME280;51342;55.250;37.668;2023-12-20T09:34:39;97942.91;;;2.78;85.12
45369;BME280;51342;55.250;37.668;2023-12-20T09:37:14;97940.16;;;2.75;84.53
45369;BME280;51342;55.250;37.668;2023-12-20T09:39:49;97944.31;;;2.73;85.18
45369;BME280;51342;55.250;37.668;2023-12-20T09:42:33;97953.72;;;2.74;84.66
45369;BME280;51342;55.250;37.668;2023-12-20T09:45:14;97956.94;;;2.72;84.62
45369;BME280;51342;55.250;37.668;2023-12-20T09:47:50;97950.09;;;2.71;84.75
45369;BME280;51342;55.250;37.668;2023-12-20T09:50:26;97949.13;;;2.69;84.64
45369;BME280;51342;55.250;37.668;2023-12-20T09:53:04;97950.81;;;2.68;85.12
45369;BME280;51342;55.250;37.668;2023-12-20T09:55:36;97950.88;;;2.70;84.75
45369;BME280;51342;55.250;37.668;2023-12-20T09:58:11;97955.91;;;2.68;84.81
45369;BME280;51342;55.250;37.668;2023-12-20T10:00:45;97958.47;;;2.68;84.74
45369;BME280;51342;55.250;37.668;2023-12-20T10:03:25;97962.56;;;2.66;84.76
45369;BME280;51342;55.250;37.668;2023-12-20T10:05:58;97952.13;;;2.61;84.83
45369;BME280;51342;55.250;37.668;2023-12-20T10:08:34;97948.84;;;2.64;84.55
45369;BME280;51342;55.250;37.668;2023-12-20T10:11:06;97950.44;;;2.62;84.84
45369;BME280;51342;55.250;37.668;2023-12-20T10:13:43;97946.13;;;2.61;84.51
45369;BME280;51342;55.250;37.668;2023-12-20T10:16:18;97945.94;;;2.58;85.27
45369;BME280;51342;55.250;37.668;2023-12-20T10:18:50;97955.34;;;2.59;84.89
45369;BME280;51342;55.250;37.668;2023-12-20T10:21:24;97952.00;;;2.60;84.88
45369;BME280;51342;55.250;37.668;2023-12-20T10:24:00;97953.78;;;2.61;85.08
45369;BME280;51342;55.250;37.668;2023-12-20T10:26:36;97950.16;;;2.57;85.03
45369;BME280;51342;55.250;37.668;2023-12-20T10:29:10;97957.97;;;2.60;84.83
45369;BME280;51342;55.250;37.668;2023-12-20T10:31:42;97960.53;;;2.60;85.04
45369;BME280;51342;55.250;37.668;2023-12-20T10:34:18;97959.78;;;2.61;84.70
45369;BME280;51342;55.250;37.668;2023-12-20T10:36:55;97963.22;;;2.62;84.94
45369;BME280;51342;55.250;37.668;2023-12-20T10:39:31;97962.22;;;2.60;85.12
45369;BME280;51342;55.250;37.668;2023-12-20T10:42:06;97949.38;;;2.58;84.88
45369;BME280;51342;55.250;37.668;2023-12-20T10:44:40;97952.00;;;2.60;85.20
45369;BME280;51342;55.250;37.668;2023-12-20T10:47:15;97945.13;;;2.59;84.92
45369;BME280;51342;55.250;37.668;2023-12-20T10:49:52;97949.38;;;2.58;84.56
45369;BME280;51342;55.250;37.668;2023-12-20T10:52:26;97940.22;;;2.62;85.15
45369;BME280;51342;55.250;37.668;2023-12-20T10:54:58;97939.44;;;2.63;84.78
45369;BME280;51342;55.250;37.668;2023-12-20T10:57:33;97936.00;;;2.62;84.75
45369;BME280;51342;55.250;37.668;2023-12-20T11:00:13;97944.47;;;2.61;84.61
45369;BME280;51342;55.250;37.668;2023-12-20T11:02:50;97945.34;;;2.62;84.88
45369;BME280;51342;55.250;37.668;2023-12-20T11:14:16;97950.75;;;2.53;85.09
45369;BME280;51342;55.250;37.668;2023-12-20T11:17:04;97952.72;;;2.57;84.89
45369;BME280;51342;55.250;37.668;2023-12-20T11:22:36;97951.13;;;2.59;84.85
45369;BME280;51342;55.250;37.668;2023-12-20T11:25:12;97950.25;;;2.59;84.73
45369;BME280;51342;55.250;37.668;2023-12-20T11:28:12;97952.63;;;2.56;84.88
45369;BME280;51342;55.250;37.668;2023-12-20T11:30:52;97951.63;;;2.54;84.62
45369;BME280;51342;55.250;37.668;2023-12-20T11:33:36;97955.84;;;2.53;84.63
45369;BME280;51342;55.250;37.668;2023-12-20T11:36:15;97949.88;;;2.53;84.63
45369;BME280;51342;55.250;37.668;2023-12-20T11:38:59;97951.47;;;2.51;85.05
45369;BME280;51342;55.250;37.668;2023-12-20T11:41:32;97955.84;;;2.53;84.67
45369;BME280;51342;55.250;37.668;2023-12-20T11:44:09;97954.97;;;2.53;84.49
45369;BME280;51342;55.250;37.668;2023-12-20T11:46:45;97959.91;;;2.50;84.61
45369;BME280;51342;55.250;37.668;2023-12-20T11:49:22;97959.00;;;2.49;84.75
45369;BME280;51342;55.250;37.668;2023-12-20T11:51:54;97958.25;;;2.50;84.69
45369;BME280;51342;55.250;37.668;2023-12-20T11:54:31;97962.34;;;2.48;84.54
45369;BME280;51342;55.250;37.668;2023-12-20T11:57:03;97954.69;;;2.48;84.58
45369;BME280;51342;55.250;37.668;2023-12-20T11:59:36;97954.69;;;2.48;84.93
45369;BME280;51342;55.250;37.668;2023-12-20T12:02:13;97963.94;;;2.46;84.79
45369;BME280;51342;55.250;37.668;2023-12-20T12:04:50;97967.28;;;2.45;84.87
45369;BME280;51342;55.250;37.668;2023-12-20T12:07:26;97965.53;;;2.44;84.85
45369;BME280;51342;55.250;37.668;2023-12-20T12:09:59;97968.16;;;2.46;85.10
45369;BME280;51342;55.250;37.668;2023-12-20T12:12:32;97971.53;;;2.45;84.65
45369;BME280;51342;55.250;37.668;2023-12-20T12:15:06;97974.84;;;2.44;84.51
45369;BME280;51342;55.250;37.668;2023-12-20T12:17:53;97974.47;;;2.37;84.63
45369;BME280;51342;55.250;37.668;2023-12-20T12:20:30;97983.78;;;2.37;84.70
45369;BME280;51342;55.250;37.668;2023-12-20T12:23:05;97981.34;;;2.38;85.02
45369;BME280;51342;55.250;37.668;2023-12-20T12:25:38;97975.16;;;2.35;84.78
45369;BME280;51342;55.250;37.668;2023-12-20T12:28:10;97979.69;;;2.39;84.80
45369;BME280;51342;55.250;37.668;2023-12-20T12:30:59;97986.19;;;2.34;84.73
45369;BME280;51342;55.250;37.668;2023-12-20T12:33:34;97985.19;;;2.32;84.81
45369;BME280;51342;55.250;37.668;2023-12-20T12:36:10;97978.78;;;2.10;85.16
45369;BME280;51342;55.250;37.668;2023-12-20T12:38:43;97984.63;;;2.23;85.34
45369;BME280;51342;55.250;37.668;2023-12-20T12:41:16;97986.38;;;2.24;85.34
45369;BME280;51342;55.250;37.668;2023-12-20T12:43:52;97989.72;;;2.23;84.99
45369;BME280;51342;55.250;37.668;2023-12-20T12:46:28;97986.38;;;2.24;85.20
45369;BME280;51342;55.250;37.668;2023-12-20T12:49:02;97985.59;;;2.25;85.05
45369;BME280;51342;55.250;37.668;2023-12-20T12:51:39;97984.72;;;2.24;85.05
45369;BME280;51342;55.250;37.668;2023-12-20T12:54:12;97988.16;;;2.25;85.27
45369;BME280;51342;55.250;37.668;2023-12-20T12:56:47;97989.09;;;2.27;85.35
45369;BME280;51342;55.250;37.668;2023-12-20T12:59:23;97990.69;;;2.25;85.38
45369;BME280;51342;55.250;37.668;2023-12-20T13:01:55;97989.91;;;2.26;85.46
45369;BME280;51342;55.250;37.668;2023-12-20T13:04:29;97988.16;;;2.25;85.35
45369;BME280;51342;55.250;37.668;2023-12-20T13:07:02;97990.59;;;2.23;85.10
45369;BME280;51342;55.250;37.668;2023-12-20T13:09:37;97975.31;;;2.23;85.42
45369;BME280;51342;55.250;37.668;2023-12-20T13:12:12;97975.97;;;2.21;85.28
45369;BME280;51342;55.250;37.668;2023-12-20T13:14:48;97967.44;;;2.20;85.22
45369;BME280;51342;55.250;37.668;2023-12-20T13:17:21;97966.66;;;2.21;85.32
45369;BME280;51342;55.250;37.668;2023-12-20T13:19:59;97963.06;;;2.18;85.69
45369;BME280;51342;55.250;37.668;2023-12-20T13:22:34;97960.28;;;2.15;85.63
45369;BME280;51342;55.250;37.668;2023-12-20T13:25:08;97963.06;;;2.18;85.66
45369;BME280;51342;55.250;37.668;2023-12-20T13:27:42;97958.75;;;2.17;85.48
45369;BME280;51342;55.250;37.668;2023-12-20T13:30:18;97966.28;;;2.15;85.29
45369;BME280;51342;55.250;37.668;2023-12-20T13:32:52;97964.72;;;2.17;85.61
45369;BME280;51342;55.250;37.668;2023-12-20T13:35:26;97960.28;;;2.15;85.57
45369;BME280;51342;55.250;37.668;2023-12-20T13:38:00;97959.53;;;2.16;85.72
45369;BME280;51342;55.250;37.668;2023-12-20T13:40:38;97966.28;;;2.15;85.70
45369;BME280;51342;55.250;37.668;2023-12-20T13:43:09;97968.81;;;2.15;85.58